PWSweather.com
Personal Weather Stations
Station Observations
GRD01
Warsaw, LesznoPL 05-084

WarsawLesznoPL 05-084

Lat: 52.257404, Lon: 20.564847

Elevation: 298

Station Type: WH3080

http://pogoda.kampinos.waw.pl

High Low Average
Temperature 62.8°F17.1°C 30.7°F-0.7°C 48.3°F9.1°C
Dew Point 34.9°F1.6°C 23.1°F-4.9°C 28.9°F-1.7°C
Winds 14.5 mph 23.3 kmh Calm Calm 5.0 mph SE8.0 kmh SE
Wind Gusts 19.0 mph30.6 kmh 2.2 mph3.5 kmh 10.0 mph16.1 kmh
Humidity 75% 28% 50%
Pressure 29.83 in1010.2 mb 29.66 in1004.4 mb -
Precipitation 0.00 in0.0 mm - -
Hour Temp Dew Point Humidity Winds Wind Gusts Pressure Precip Precip Rate Daily Precip Total
12:00 AM 33.8°F1.0°C 24.0°F-4.4°C 67% 0.7 mph S1.1 kmh S 3.1 mph5.0 kmh 29.78 in1008.5 mb 0.00 in0.0 mm 0.00 in0.0 mm 0.00 in0.0 mm
12:15 AM 33.6°F0.9°C 24.2°F-4.3°C 68% 2.2 mph S3.5 kmh S 3.1 mph5.0 kmh 29.78 in1008.5 mb 0.00 in0.0 mm 0.00 in0.0 mm 0.00 in0.0 mm
12:30 AM 33.3°F0.7°C 23.8°F-4.6°C 68% Calm Calm 2.2 mph3.5 kmh 29.79 in1008.8 mb 0.00 in0.0 mm 0.00 in0.0 mm 0.00 in0.0 mm
12:45 AM 33.1°F0.6°C 23.7°F-4.6°C 68% 1.6 mph N2.6 kmh N 3.8 mph6.1 kmh 29.78 in1008.5 mb 0.00 in0.0 mm 0.00 in0.0 mm 0.00 in0.0 mm
01:00 AM 32.5°F0.3°C 23.5°F-4.7°C 69% Calm Calm 3.8 mph6.1 kmh 29.79 in1008.8 mb 0.00 in0.0 mm 0.00 in0.0 mm 0.00 in0.0 mm
01:15 AM 32.4°F0.2°C 23.3°F-4.8°C 69% 1.6 mph N2.6 kmh N 3.1 mph5.0 kmh 29.80 in1009.1 mb 0.00 in0.0 mm 0.00 in0.0 mm 0.00 in0.0 mm
01:30 AM 31.8°F-0.1°C 23.1°F-4.9°C 70% 2.2 mph NNE3.5 kmh NNE 3.1 mph5.0 kmh 29.79 in1008.8 mb 0.00 in0.0 mm 0.00 in0.0 mm 0.00 in0.0 mm
01:45 AM 31.8°F-0.1°C 23.1°F-4.9°C 70% 2.2 mph NNE3.5 kmh NNE 4.5 mph7.2 kmh 29.78 in1008.5 mb 0.00 in0.0 mm 0.00 in0.0 mm 0.00 in0.0 mm
02:00 AM 31.8°F-0.1°C 23.5°F-4.7°C 71% 0.7 mph NE1.1 kmh NE 3.1 mph5.0 kmh 29.79 in1008.8 mb 0.00 in0.0 mm 0.00 in0.0 mm 0.00 in0.0 mm
02:15 AM 32.0°F0.0°C 23.7°F-4.6°C 71% 0.7 mph S1.1 kmh S 2.2 mph3.5 kmh 29.79 in1008.8 mb 0.00 in0.0 mm 0.00 in0.0 mm 0.00 in0.0 mm
02:30 AM 31.8°F-0.1°C 23.5°F-4.7°C 71% 3.1 mph NE5.0 kmh NE 3.8 mph6.1 kmh 29.79 in1008.8 mb 0.00 in0.0 mm 0.00 in0.0 mm 0.00 in0.0 mm
02:45 AM 31.5°F-0.3°C 23.1°F-4.9°C 71% 0.7 mph E1.1 kmh E 2.2 mph3.5 kmh 29.79 in1008.8 mb 0.00 in0.0 mm 0.00 in0.0 mm 0.00 in0.0 mm
03:00 AM 31.6°F-0.2°C 23.6°F-4.7°C 72% 1.6 mph S2.6 kmh S 3.1 mph5.0 kmh 29.80 in1009.1 mb 0.00 in0.0 mm 0.00 in0.0 mm 0.00 in0.0 mm
03:15 AM 31.6°F-0.2°C 23.6°F-4.7°C 72% 0.7 mph ESE1.1 kmh ESE 2.2 mph3.5 kmh 29.79 in1008.8 mb 0.00 in0.0 mm 0.00 in0.0 mm 0.00 in0.0 mm
03:30 AM 31.6°F-0.2°C 24.0°F-4.4°C 73% 2.2 mph ESE3.5 kmh ESE 3.1 mph5.0 kmh 29.80 in1009.1 mb 0.00 in0.0 mm 0.00 in0.0 mm 0.00 in0.0 mm
03:45 AM 31.5°F-0.3°C 23.8°F-4.6°C 73% Calm Calm 3.1 mph5.0 kmh 29.80 in1009.1 mb 0.00 in0.0 mm 0.00 in0.0 mm 0.00 in0.0 mm
04:00 AM 31.8°F-0.1°C 24.5°F-4.2°C 74% 2.2 mph E3.5 kmh E 3.1 mph5.0 kmh 29.80 in1009.1 mb 0.00 in0.0 mm 0.00 in0.0 mm 0.00 in0.0 mm
04:15 AM 31.8°F-0.1°C 24.8°F-4.0°C 75% 1.6 mph ESE2.6 kmh ESE 3.1 mph5.0 kmh 29.80 in1009.1 mb 0.00 in0.0 mm 0.00 in0.0 mm 0.00 in0.0 mm
04:30 AM 31.3°F-0.4°C 24.0°F-4.4°C 74% 2.2 mph NE3.5 kmh NE 3.1 mph5.0 kmh 29.80 in1009.1 mb 0.00 in0.0 mm 0.00 in0.0 mm 0.00 in0.0 mm
04:45 AM 31.1°F-0.5°C 23.8°F-4.6°C 74% 2.2 mph NE3.5 kmh NE 3.1 mph5.0 kmh 29.80 in1009.1 mb 0.00 in0.0 mm 0.00 in0.0 mm 0.00 in0.0 mm
05:00 AM 30.7°F-0.7°C 23.1°F-4.9°C 73% 1.6 mph E2.6 kmh E 3.1 mph5.0 kmh 29.81 in1009.5 mb 0.00 in0.0 mm 0.00 in0.0 mm 0.00 in0.0 mm
05:15 AM 30.7°F-0.7°C 23.4°F-4.8°C 74% 1.6 mph NE2.6 kmh NE 2.2 mph3.5 kmh 29.81 in1009.5 mb 0.00 in0.0 mm 0.00 in0.0 mm 0.00 in0.0 mm
05:30 AM 30.9°F-0.6°C 23.6°F-4.7°C 74% 1.6 mph NE2.6 kmh NE 3.1 mph5.0 kmh 29.82 in1009.8 mb 0.00 in0.0 mm 0.00 in0.0 mm 0.00 in0.0 mm
05:45 AM 31.5°F-0.3°C 24.1°F-4.4°C 74% 0.7 mph E1.1 kmh E 3.1 mph5.0 kmh 29.82 in1009.8 mb 0.00 in0.0 mm 0.00 in0.0 mm 0.00 in0.0 mm
06:00 AM 31.8°F-0.1°C 24.5°F-4.2°C 74% 2.2 mph E3.5 kmh E 3.8 mph6.1 kmh 29.82 in1009.8 mb 0.00 in0.0 mm 0.00 in0.0 mm 0.00 in0.0 mm
06:15 AM 33.3°F0.7°C 25.9°F-3.4°C 74% 5.4 mph E8.7 kmh E 6.9 mph11.1 kmh 29.82 in1009.8 mb 0.00 in0.0 mm 0.00 in0.0 mm 0.00 in0.0 mm
06:30 AM 35.2°F1.8°C 27.8°F-2.3°C 74% 5.4 mph E8.7 kmh E 7.6 mph12.2 kmh 29.82 in1009.8 mb 0.00 in0.0 mm 0.00 in0.0 mm 0.00 in0.0 mm
06:45 AM 37.8°F3.2°C 29.2°F-1.6°C 71% 6.0 mph ESE9.7 kmh ESE 7.6 mph12.2 kmh 29.82 in1009.8 mb 0.00 in0.0 mm 0.00 in0.0 mm 0.00 in0.0 mm
07:00 AM 40.1°F4.5°C 30.0°F-1.1°C 67% 6.0 mph SE9.7 kmh SE 12.1 mph19.5 kmh 29.83 in1010.2 mb 0.00 in0.0 mm 0.00 in0.0 mm 0.00 in0.0 mm
07:15 AM 41.7°F5.4°C 30.4°F-0.9°C 64% 6.0 mph SE9.7 kmh SE 8.3 mph13.4 kmh 29.83 in1010.2 mb 0.00 in0.0 mm 0.00 in0.0 mm 0.00 in0.0 mm
07:30 AM 43.2°F6.2°C 31.0°F-0.6°C 62% 6.9 mph SE11.1 kmh SE 13.0 mph20.9 kmh 29.83 in1010.2 mb 0.00 in0.0 mm 0.00 in0.0 mm 0.00 in0.0 mm
07:45 AM 44.6°F7.0°C 31.6°F-0.2°C 60% 11.4 mph SE18.3 kmh SE 13.6 mph21.9 kmh 29.82 in1009.8 mb 0.00 in0.0 mm 0.00 in0.0 mm 0.00 in0.0 mm
08:00 AM 46.0°F7.8°C 29.8°F-1.2°C 53% 4.5 mph SE7.2 kmh SE 12.1 mph19.5 kmh 29.82 in1009.8 mb 0.00 in0.0 mm 0.00 in0.0 mm 0.00 in0.0 mm
08:15 AM 47.5°F8.6°C 30.2°F-1.0°C 51% 7.6 mph SE12.2 kmh SE 12.1 mph19.5 kmh 29.82 in1009.8 mb 0.00 in0.0 mm 0.00 in0.0 mm 0.00 in0.0 mm
08:30 AM 48.7°F9.3°C 30.9°F-0.6°C 50% 6.0 mph SE9.7 kmh SE 12.1 mph19.5 kmh 29.83 in1010.2 mb 0.00 in0.0 mm 0.00 in0.0 mm 0.00 in0.0 mm
08:45 AM 50.5°F10.3°C 31.6°F-0.2°C 48% 9.2 mph SE14.8 kmh SE 10.7 mph17.2 kmh 29.82 in1009.8 mb 0.00 in0.0 mm 0.00 in0.0 mm 0.00 in0.0 mm
09:00 AM 52.7°F11.5°C 32.5°F0.3°C 46% 5.4 mph ESE8.7 kmh ESE 9.8 mph15.8 kmh 29.83 in1010.2 mb 0.00 in0.0 mm 0.00 in0.0 mm 0.00 in0.0 mm
09:15 AM 54.1°F12.3°C 32.1°F0.1°C 43% 4.5 mph SE7.2 kmh SE 11.4 mph18.3 kmh 29.83 in1010.2 mb 0.00 in0.0 mm 0.00 in0.0 mm 0.00 in0.0 mm
09:30 AM 53.8°F12.1°C 30.6°F-0.8°C 41% 5.4 mph SSE8.7 kmh SSE 11.4 mph18.3 kmh 29.82 in1009.8 mb 0.00 in0.0 mm 0.00 in0.0 mm 0.00 in0.0 mm
09:45 AM 55.0°F12.8°C 27.9°F-2.3°C 35% 10.7 mph SE17.2 kmh SE 14.5 mph23.3 kmh 29.82 in1009.8 mb 0.00 in0.0 mm 0.00 in0.0 mm 0.00 in0.0 mm
10:00 AM 55.8°F13.2°C 26.3°F-3.2°C 32% 6.0 mph SE9.7 kmh SE 13.6 mph21.9 kmh 29.81 in1009.5 mb 0.00 in0.0 mm 0.00 in0.0 mm 0.00 in0.0 mm
10:15 AM 55.8°F13.2°C 27.1°F-2.7°C 33% 10.7 mph SE17.2 kmh SE 15.9 mph25.6 kmh 29.82 in1009.8 mb 0.00 in0.0 mm 0.00 in0.0 mm 0.00 in0.0 mm
10:30 AM 55.9°F13.3°C 25.7°F-3.5°C 31% 8.3 mph SSE13.4 kmh SSE 16.8 mph27.0 kmh 29.82 in1009.8 mb 0.00 in0.0 mm 0.00 in0.0 mm 0.00 in0.0 mm
10:45 AM 56.1°F13.4°C 25.9°F-3.4°C 31% 9.8 mph SE15.8 kmh SE 17.4 mph28.0 kmh 29.82 in1009.8 mb 0.00 in0.0 mm 0.00 in0.0 mm 0.00 in0.0 mm
11:00 AM 56.7°F13.7°C 26.3°F-3.2°C 31% 3.8 mph S6.1 kmh S 19.0 mph30.6 kmh 29.81 in1009.5 mb 0.00 in0.0 mm 0.00 in0.0 mm 0.00 in0.0 mm
11:15 AM 57.2°F14.0°C 27.6°F-2.4°C 32% 9.8 mph SE15.8 kmh SE 15.2 mph24.5 kmh 29.81 in1009.5 mb 0.00 in0.0 mm 0.00 in0.0 mm 0.00 in0.0 mm
11:30 AM 57.7°F14.3°C 27.3°F-2.6°C 31% 6.9 mph SE11.1 kmh SE 11.4 mph18.3 kmh 29.80 in1009.1 mb 0.00 in0.0 mm 0.00 in0.0 mm 0.00 in0.0 mm
11:45 AM 58.3°F14.6°C 28.5°F-1.9°C 32% 9.2 mph SE14.8 kmh SE 14.5 mph23.3 kmh 29.80 in1009.1 mb 0.00 in0.0 mm 0.00 in0.0 mm 0.00 in0.0 mm
12:00 PM 58.5°F14.7°C 27.9°F-2.3°C 31% 7.6 mph SE12.2 kmh SE 15.2 mph24.5 kmh 29.79 in1008.8 mb 0.00 in0.0 mm 0.00 in0.0 mm 0.00 in0.0 mm
12:15 PM 59.0°F15.0°C 28.4°F-2.0°C 31% 14.5 mph ESE23.3 kmh ESE 18.3 mph29.5 kmh 29.78 in1008.5 mb 0.00 in0.0 mm 0.00 in0.0 mm 0.00 in0.0 mm
12:30 PM 59.4°F15.2°C 27.9°F-2.3°C 30% 13.6 mph SE21.9 kmh SE 15.9 mph25.6 kmh 29.78 in1008.5 mb 0.00 in0.0 mm 0.00 in0.0 mm 0.00 in0.0 mm
12:45 PM 59.4°F15.2°C 28.7°F-1.8°C 31% 6.0 mph E9.7 kmh E 19.0 mph30.6 kmh 29.78 in1008.5 mb 0.00 in0.0 mm 0.00 in0.0 mm 0.00 in0.0 mm
01:00 PM 60.1°F15.6°C 28.5°F-1.9°C 30% 9.8 mph ESE15.8 kmh ESE 15.2 mph24.5 kmh 29.78 in1008.5 mb 0.00 in0.0 mm 0.00 in0.0 mm 0.00 in0.0 mm
01:15 PM 60.4°F15.8°C 28.8°F-1.8°C 30% 11.4 mph ESE18.3 kmh ESE 15.2 mph24.5 kmh 29.76 in1007.8 mb 0.00 in0.0 mm 0.00 in0.0 mm 0.00 in0.0 mm
01:30 PM 60.8°F16.0°C 29.1°F-1.6°C 30% 7.6 mph SE12.2 kmh SE 17.4 mph28.0 kmh 29.77 in1008.1 mb 0.00 in0.0 mm 0.00 in0.0 mm 0.00 in0.0 mm
01:45 PM 61.2°F16.2°C 29.5°F-1.4°C 30% 7.6 mph SE12.2 kmh SE 15.9 mph25.6 kmh 29.75 in1007.5 mb 0.00 in0.0 mm 0.00 in0.0 mm 0.00 in0.0 mm
02:00 PM 61.5°F16.4°C 29.8°F-1.2°C 30% 3.1 mph SE5.0 kmh SE 17.4 mph28.0 kmh 29.75 in1007.5 mb 0.00 in0.0 mm 0.00 in0.0 mm 0.00 in0.0 mm
02:15 PM 62.1°F16.7°C 28.5°F-1.9°C 28% 9.8 mph ESE15.8 kmh ESE 17.4 mph28.0 kmh 29.74 in1007.1 mb 0.00 in0.0 mm 0.00 in0.0 mm 0.00 in0.0 mm
02:30 PM 62.4°F16.9°C 30.5°F-0.8°C 30% 6.0 mph SE9.7 kmh SE 16.8 mph27.0 kmh 29.74 in1007.1 mb 0.00 in0.0 mm 0.00 in0.0 mm 0.00 in0.0 mm
02:45 PM 62.8°F17.1°C 29.2°F-1.6°C 28% 9.2 mph SE14.8 kmh SE 15.2 mph24.5 kmh 29.73 in1006.8 mb 0.00 in0.0 mm 0.00 in0.0 mm 0.00 in0.0 mm
03:00 PM 62.8°F17.1°C 30.9°F-0.6°C 30% 8.3 mph SSE13.4 kmh SSE 15.2 mph24.5 kmh 29.73 in1006.8 mb 0.00 in0.0 mm 0.00 in0.0 mm 0.00 in0.0 mm
03:15 PM 62.8°F17.1°C 30.9°F-0.6°C 30% 13.6 mph SE21.9 kmh SE 16.8 mph27.0 kmh 29.73 in1006.8 mb 0.00 in0.0 mm 0.00 in0.0 mm 0.00 in0.0 mm
03:30 PM 62.8°F17.1°C 29.2°F-1.6°C 28% 8.3 mph SSE13.4 kmh SSE 17.4 mph28.0 kmh 29.72 in1006.4 mb 0.00 in0.0 mm 0.00 in0.0 mm 0.00 in0.0 mm
03:45 PM 62.8°F17.1°C 30.9°F-0.6°C 30% 9.2 mph SE14.8 kmh SE 15.9 mph25.6 kmh 29.71 in1006.1 mb 0.00 in0.0 mm 0.00 in0.0 mm 0.00 in0.0 mm
04:00 PM 62.8°F17.1°C 31.7°F-0.2°C 31% 9.8 mph ESE15.8 kmh ESE 15.2 mph24.5 kmh 29.71 in1006.1 mb 0.00 in0.0 mm 0.00 in0.0 mm 0.00 in0.0 mm
04:15 PM 62.4°F16.9°C 30.5°F-0.8°C 30% 9.8 mph SE15.8 kmh SE 13.6 mph21.9 kmh 29.71 in1006.1 mb 0.00 in0.0 mm 0.00 in0.0 mm 0.00 in0.0 mm
04:30 PM 62.2°F16.8°C 31.2°F-0.4°C 31% 5.4 mph S8.7 kmh S 13.0 mph20.9 kmh 29.70 in1005.8 mb 0.00 in0.0 mm 0.00 in0.0 mm 0.00 in0.0 mm
04:45 PM 61.7°F16.5°C 31.5°F-0.3°C 32% 3.8 mph S6.1 kmh S 13.6 mph21.9 kmh 29.70 in1005.8 mb 0.00 in0.0 mm 0.00 in0.0 mm 0.00 in0.0 mm
05:00 PM 61.3°F16.3°C 31.2°F-0.4°C 32% 6.0 mph SE9.7 kmh SE 13.0 mph20.9 kmh 29.70 in1005.8 mb 0.00 in0.0 mm 0.00 in0.0 mm 0.00 in0.0 mm
05:15 PM 60.6°F15.9°C 32.1°F0.1°C 34% 5.4 mph S8.7 kmh S 11.4 mph18.3 kmh 29.69 in1005.4 mb 0.00 in0.0 mm 0.00 in0.0 mm 0.00 in0.0 mm
05:30 PM 59.4°F15.2°C 33.7°F0.9°C 38% 3.8 mph SSE6.1 kmh SSE 9.8 mph15.8 kmh 29.69 in1005.4 mb 0.00 in0.0 mm 0.00 in0.0 mm 0.00 in0.0 mm
05:45 PM 58.1°F14.5°C 32.6°F0.3°C 38% 5.4 mph SE8.7 kmh SE 11.4 mph18.3 kmh 29.69 in1005.4 mb 0.00 in0.0 mm 0.00 in0.0 mm 0.00 in0.0 mm
06:00 PM 57.4°F14.1°C 32.0°F0.0°C 38% 3.8 mph SE6.1 kmh SE 11.4 mph18.3 kmh 29.70 in1005.8 mb 0.00 in0.0 mm 0.00 in0.0 mm 0.00 in0.0 mm
06:15 PM 56.1°F13.4°C 32.1°F0.1°C 40% 5.4 mph S8.7 kmh S 9.8 mph15.8 kmh 29.69 in1005.4 mb 0.00 in0.0 mm 0.00 in0.0 mm 0.00 in0.0 mm
06:30 PM 55.4°F13.0°C 31.5°F-0.3°C 40% 5.4 mph S8.7 kmh S 9.8 mph15.8 kmh 29.69 in1005.4 mb 0.00 in0.0 mm 0.00 in0.0 mm 0.00 in0.0 mm
06:45 PM 54.5°F12.5°C 31.3°F-0.4°C 41% 3.8 mph SSE6.1 kmh SSE 10.7 mph17.2 kmh 29.68 in1005.1 mb 0.00 in0.0 mm 0.00 in0.0 mm 0.00 in0.0 mm
07:00 PM 53.8°F12.1°C 32.9°F0.5°C 45% 6.9 mph SE11.1 kmh SE 9.2 mph14.8 kmh 29.69 in1005.4 mb 0.00 in0.0 mm 0.00 in0.0 mm 0.00 in0.0 mm
07:15 PM 53.1°F11.7°C 32.8°F0.4°C 46% 3.1 mph SE5.0 kmh SE 7.6 mph12.2 kmh 29.68 in1005.1 mb 0.00 in0.0 mm 0.00 in0.0 mm 0.00 in0.0 mm
07:30 PM 52.5°F11.4°C 31.8°F-0.1°C 45% 5.4 mph SE8.7 kmh SE 7.6 mph12.2 kmh 29.69 in1005.4 mb 0.00 in0.0 mm 0.00 in0.0 mm 0.00 in0.0 mm
07:45 PM 52.3°F11.3°C 32.2°F0.1°C 46% 5.4 mph SE8.7 kmh SE 8.3 mph13.4 kmh 29.70 in1005.8 mb 0.00 in0.0 mm 0.00 in0.0 mm 0.00 in0.0 mm
08:00 PM 52.2°F11.2°C 32.5°F0.3°C 47% 4.5 mph SE7.2 kmh SE 6.9 mph11.1 kmh 29.70 in1005.8 mb 0.00 in0.0 mm 0.00 in0.0 mm 0.00 in0.0 mm
08:15 PM 51.6°F10.9°C 32.6°F0.3°C 48% 2.2 mph E3.5 kmh E 6.0 mph9.7 kmh 29.70 in1005.8 mb 0.00 in0.0 mm 0.00 in0.0 mm 0.00 in0.0 mm
08:30 PM 51.1°F10.6°C 33.1°F0.6°C 50% 4.5 mph E7.2 kmh E 6.0 mph9.7 kmh 29.70 in1005.8 mb 0.00 in0.0 mm 0.00 in0.0 mm 0.00 in0.0 mm
08:45 PM 50.5°F10.3°C 32.6°F0.3°C 50% 3.8 mph E6.1 kmh E 6.9 mph11.1 kmh 29.69 in1005.4 mb 0.00 in0.0 mm 0.00 in0.0 mm 0.00 in0.0 mm
09:00 PM 50.2°F10.1°C 32.7°F0.4°C 51% 3.1 mph ESE5.0 kmh ESE 6.0 mph9.7 kmh 29.69 in1005.4 mb 0.00 in0.0 mm 0.00 in0.0 mm 0.00 in0.0 mm
09:15 PM 49.8°F9.9°C 32.4°F0.2°C 51% 5.4 mph E8.7 kmh E 8.3 mph13.4 kmh 29.69 in1005.4 mb 0.00 in0.0 mm 0.00 in0.0 mm 0.00 in0.0 mm
09:30 PM 49.6°F9.8°C 32.7°F0.4°C 52% 2.2 mph ESE3.5 kmh ESE 6.0 mph9.7 kmh 29.68 in1005.1 mb 0.00 in0.0 mm 0.00 in0.0 mm 0.00 in0.0 mm
09:45 PM 49.3°F9.6°C 32.9°F0.5°C 53% 3.1 mph E5.0 kmh E 8.3 mph13.4 kmh 29.68 in1005.1 mb 0.00 in0.0 mm 0.00 in0.0 mm 0.00 in0.0 mm
10:00 PM 49.1°F9.5°C 33.2°F0.7°C 54% 3.8 mph E6.1 kmh E 7.6 mph12.2 kmh 29.68 in1005.1 mb 0.00 in0.0 mm 0.00 in0.0 mm 0.00 in0.0 mm
10:15 PM 49.1°F9.5°C 33.6°F0.9°C 55% 6.0 mph E9.7 kmh E 9.8 mph15.8 kmh 29.68 in1005.1 mb 0.00 in0.0 mm 0.00 in0.0 mm 0.00 in0.0 mm
10:30 PM 48.9°F9.4°C 33.4°F0.8°C 55% 6.0 mph SE9.7 kmh SE 11.4 mph18.3 kmh 29.68 in1005.1 mb 0.00 in0.0 mm 0.00 in0.0 mm 0.00 in0.0 mm
10:45 PM 49.3°F9.6°C 33.8°F1.0°C 55% 6.9 mph SE11.1 kmh SE 10.7 mph17.2 kmh 29.68 in1005.1 mb 0.00 in0.0 mm 0.00 in0.0 mm 0.00 in0.0 mm
11:00 PM 49.5°F9.7°C 34.0°F1.1°C 55% 8.3 mph SE13.4 kmh SE 12.1 mph19.5 kmh 29.67 in1004.7 mb 0.00 in0.0 mm 0.00 in0.0 mm 0.00 in0.0 mm
11:15 PM 49.5°F9.7°C 34.4°F1.3°C 56% 8.3 mph SE13.4 kmh SE 11.4 mph18.3 kmh 29.66 in1004.4 mb 0.00 in0.0 mm 0.00 in0.0 mm 0.00 in0.0 mm
11:30 PM 49.3°F9.6°C 34.7°F1.5°C 57% 8.3 mph SE13.4 kmh SE 13.0 mph20.9 kmh 29.67 in1004.7 mb 0.00 in0.0 mm 0.00 in0.0 mm 0.00 in0.0 mm
11:45 PM 49.1°F9.5°C 34.9°F1.6°C 58% 8.3 mph SE13.4 kmh SE 12.1 mph19.5 kmh 29.66 in1004.4 mb 0.00 in0.0 mm 0.00 in0.0 mm 0.00 in0.0 mm